Time;durP1;ratioP1;P1;durP2;ratioP2;P2;SDS_P1;SDS_P2;PMS_P1;PMS_P2;Temp;Humidity;BMP_temperature;BMP_pressure;BME280_temperature;BME280_humidity;BME280_pressure;Samples;Min_cycle;Max_cycle;Signal;HPM_P1;HPM_P2
2022/05/23 00:01:38;;;;;;;16.23;6.57;;;;;;;;;;5073504;28;20044;-68
2022/05/23 00:04:04;;;;;;;11.10;6.40;;;;;;;;;;5073033;28;20036;-71
2022/05/23 00:06:30;;;;;;;10.13;5.60;;;;;;;;;;5073620;28;20056;-70
2022/05/23 00:08:55;;;;;;;14.15;6.63;;;;;;;;;;5072887;28;21054;-68
2022/05/23 00:11:21;;;;;;;11.93;5.80;;;;;;;;;;5072987;28;20036;-71
2022/05/23 00:13:48;;;;;;;10.63;5.63;;;;;;;;;;5073090;28;20383;-68
2022/05/23 00:16:24;;;;;;;11.32;5.18;;;;;;;;;;5072837;28;20055;-70
2022/05/23 00:18:51;;;;;;;8.25;5.18;;;;;;;;;;5073095;28;20066;-71
2022/05/23 00:21:18;;;;;;;16.30;5.97;;;;;;;;;;5072955;28;20119;-70
2022/05/23 00:23:44;;;;;;;20.10;6.60;;;;;;;;;;5072668;28;20074;-72
2022/05/23 00:26:17;;;;;;;14.15;6.63;;;;;;;;;;5072630;28;20055;-67
2022/05/23 00:28:43;;;;;;;20.75;6.85;;;;;;;;;;5071952;28;20450;-70
2022/05/23 00:31:10;;;;;;;11.10;5.20;;;;;;;;;;5070085;28;20039;-68
2022/05/23 00:36:31;;;;;;;9.48;6.07;;;;;;;;;;5071301;28;20028;-69
2022/05/23 00:38:57;;;;;;;15.82;6.63;;;;;;;;;;5072544;28;20043;-68
2022/05/23 00:44:23;;;;;;;15.07;6.57;;;;;;;;;;5072827;28;20032;-71
2022/05/23 00:46:54;;;;;;;14.88;7.07;;;;;;;;;;5072508;28;20056;-72
2022/05/23 00:49:25;;;;;;;18.52;7.28;;;;;;;;;;5072417;28;20040;-69
2022/05/23 00:51:52;;;;;;;10.00;6.32;;;;;;;;;;5072301;28;20041;-71
2022/05/23 00:54:20;;;;;;;13.73;6.85;;;;;;;;;;5072308;28;20070;-70
2022/05/23 00:56:48;;;;;;;12.82;6.95;;;;;;;;;;5072198;28;20132;-70
2022/05/23 00:59:19;;;;;;;16.45;7.00;;;;;;;;;;5071926;28;20039;-71
2022/05/23 01:01:46;;;;;;;12.02;7.85;;;;;;;;;;5064724;28;20319;-68
2022/05/23 01:04:12;;;;;;;14.40;7.68;;;;;;;;;;5052209;28;20096;-70
2022/05/23 01:06:38;;;;;;;15.05;8.50;;;;;;;;;;5050911;28;20132;-73
2022/05/23 01:09:04;;;;;;;12.90;7.57;;;;;;;;;;5052531;28;20045;-71
2022/05/23 01:11:30;;;;;;;13.13;7.10;;;;;;;;;;5050785;28;20047;-70
2022/05/23 01:13:56;;;;;;;17.85;8.57;;;;;;;;;;5050886;28;20033;-69
2022/05/23 01:16:24;;;;;;;9.85;7.32;;;;;;;;;;5050812;28;20033;-71
2022/05/23 01:18:52;;;;;;;13.23;7.75;;;;;;;;;;5051797;28;20017;-73
2022/05/23 01:21:48;;;;;;;15.43;7.70;;;;;;;;;;5066880;28;20032;-67
2022/05/23 01:24:23;;;;;;;14.02;7.03;;;;;;;;;;5064758;28;20043;-68
2022/05/23 01:26:55;;;;;;;10.50;6.82;;;;;;;;;;5070429;28;20095;-66
2022/05/23 01:29:30;;;;;;;11.52;6.50;;;;;;;;;;5055088;28;20047;-66
2022/05/23 01:32:04;;;;;;;15.38;7.13;;;;;;;;;;5066447;28;20039;-70
2022/05/23 01:34:32;;;;;;;11.38;6.93;;;;;;;;;;5065498;28;20124;-66
2022/05/23 01:37:10;;;;;;;15.07;6.82;;;;;;;;;;5071318;28;20107;-70
2022/05/23 01:40:09;;;;;;;16.23;8.30;;;;;;;;;;5067953;28;20110;-67
2022/05/23 01:42:55;;;;;;;13.35;8.68;;;;;;;;;;5071245;28;20045;-71
2022/05/23 01:45:29;;;;;;;14.52;8.70;;;;;;;;;;5070231;28;20564;-70
2022/05/23 01:47:58;;;;;;;14.70;8.93;;;;;;;;;;5071109;28;20028;-68
2022/05/23 01:50:25;;;;;;;12.85;7.63;;;;;;;;;;5070219;28;20139;-70
2022/05/23 01:52:53;;;;;;;14.40;8.73;;;;;;;;;;5071356;28;20039;-69
2022/05/23 01:55:22;;;;;;;12.25;9.35;;;;;;;;;;5070035;28;20043;-73
2022/05/23 02:01:13;;;;;;;11.10;8.23;;;;;;;;;;5065878;28;20433;-72
2022/05/23 02:01:14;;;;;;;14.75;8.82;;;;;;;;;;5069972;28;20032;-68
2022/05/23 02:03:48;;;;;;;11.27;9.57;;;;;;;;;;5063862;28;20090;-70
2022/05/23 02:06:16;;;;;;;18.85;8.55;;;;;;;;;;5049639;28;20071;-69
2022/05/23 02:08:44;;;;;;;20.55;10.55;;;;;;;;;;5053089;28;20112;-67
2022/05/23 02:11:10;;;;;;;21.10;9.75;;;;;;;;;;5057071;28;20071;-69
2022/05/23 02:13:38;;;;;;;11.35;10.05;;;;;;;;;;5055023;28;20025;-68
2022/05/23 02:16:05;;;;;;;18.52;10.68;;;;;;;;;;5051760;28;20060;-72
2022/05/23 02:18:41;;;;;;;13.95;9.63;;;;;;;;;;5050191;28;20060;-70
2022/05/23 02:21:08;;;;;;;15.68;8.07;;;;;;;;;;5050217;28;20033;-67
2022/05/23 02:23:35;;;;;;;13.38;6.88;;;;;;;;;;5065022;28;20025;-72
2022/05/23 02:26:01;;;;;;;15.85;7.20;;;;;;;;;;5068868;28;20056;-71
2022/05/23 02:28:47;;;;;;;9.20;7.95;;;;;;;;;;5061198;28;20032;-67
2022/05/23 02:31:23;;;;;;;12.52;7.63;;;;;;;;;;5070890;28;20124;-70
2022/05/23 02:33:55;;;;;;;19.55;8.43;;;;;;;;;;5071611;28;20040;-69
2022/05/23 02:36:45;;;;;;;18.10;7.55;;;;;;;;;;5066129;28;20033;-72
2022/05/23 02:39:13;;;;;;;15.63;8.35;;;;;;;;;;5070167;28;20033;-72
2022/05/23 02:41:41;;;;;;;17.85;9.32;;;;;;;;;;5055002;28;20074;-69
2022/05/23 02:44:09;;;;;;;19.63;9.95;;;;;;;;;;5053312;28;20566;-71
2022/05/23 02:46:36;;;;;;;13.73;7.85;;;;;;;;;;5054625;28;20116;-69
2022/05/23 02:49:10;;;;;;;15.02;8.02;;;;;;;;;;5080728;28;20127;-71
2022/05/23 02:51:40;;;;;;;23.90;8.57;;;;;;;;;;5072976;28;20123;-70
2022/05/23 02:54:09;;;;;;;19.13;8.00;;;;;;;;;;5073334;28;20033;-68
2022/05/23 02:56:37;;;;;;;14.63;5.97;;;;;;;;;;5073057;28;20511;-68
2022/05/23 02:59:03;;;;;;;18.88;6.35;;;;;;;;;;5072496;28;20081;-70
2022/05/23 03:01:31;;;;;;;16.38;6.72;;;;;;;;;;5072806;28;20028;-67
2022/05/23 03:03:56;;;;;;;26.35;7.28;;;;;;;;;;5068510;28;20024;-67
2022/05/23 03:06:23;;;;;;;22.17;6.60;;;;;;;;;;5062446;28;20108;-67
2022/05/23 03:08:49;;;;;;;15.40;5.38;;;;;;;;;;5073789;28;20020;-67
2022/05/23 03:11:17;;;;;;;14.85;5.63;;;;;;;;;;5071866;28;20047;-66
2022/05/23 03:13:44;;;;;;;15.00;6.03;;;;;;;;;;5069816;28;20029;-69
2022/05/23 03:16:12;;;;;;;17.73;5.90;;;;;;;;;;5062295;28;20028;-66
2022/05/23 03:18:40;;;;;;;15.52;5.70;;;;;;;;;;5073580;28;20021;-67
2022/05/23 03:21:09;;;;;;;17.20;5.63;;;;;;;;;;5073916;28;20048;-67
2022/05/23 03:29:12;;;;;;;13.55;5.68;;;;;;;;;;5073318;28;20060;-66
2022/05/23 03:31:38;;;;;;;18.13;6.40;;;;;;;;;;5056487;28;20025;-67
2022/05/23 03:34:07;;;;;;;21.77;5.72;;;;;;;;;;5072879;28;20390;-67
2022/05/23 03:36:33;;;;;;;18.52;6.07;;;;;;;;;;5072501;28;20036;-72
2022/05/23 03:39:02;;;;;;;26.17;5.63;;;;;;;;;;5073770;28;20039;-69
2022/05/23 03:41:28;;;;;;;15.05;5.25;;;;;;;;;;5073686;28;20037;-67
2022/05/23 03:43:54;;;;;;;19.05;6.30;;;;;;;;;;5073069;28;20032;-74
2022/05/23 03:46:21;;;;;;;14.38;5.93;;;;;;;;;;5073465;28;20035;-71
2022/05/23 03:48:47;;;;;;;10.70;5.53;;;;;;;;;;5073081;28;20123;-71
2022/05/23 03:51:13;;;;;;;18.80;5.22;;;;;;;;;;5072958;28;20440;-70
2022/05/23 03:53:39;;;;;;;20.08;6.05;;;;;;;;;;5074294;28;20029;-71
2022/05/23 03:56:07;;;;;;;29.15;6.50;;;;;;;;;;5072552;28;20044;-69
2022/05/23 03:58:36;;;;;;;23.10;5.78;;;;;;;;;;5073069;28;20048;-71
2022/05/23 04:01:19;;;;;;;26.08;5.97;;;;;;;;;;5068871;28;20033;-71
2022/05/23 04:03:52;;;;;;;28.33;7.00;;;;;;;;;;5061159;28;20032;-69
2022/05/23 04:06:18;;;;;;;19.27;6.32;;;;;;;;;;5066982;28;20403;-72
2022/05/23 04:08:52;;;;;;;25.63;4.85;;;;;;;;;;5052667;28;20059;-71
2022/05/23 04:11:18;;;;;;;18.38;5.43;;;;;;;;;;5052545;28;20041;-73
2022/05/23 04:13:44;;;;;;;18.38;5.82;;;;;;;;;;5052387;28;20079;-69
2022/05/23 04:16:11;;;;;;;27.02;6.80;;;;;;;;;;5060780;28;20499;-73
2022/05/23 04:18:39;;;;;;;19.27;5.85;;;;;;;;;;5073013;28;20467;-72
2022/05/23 04:21:06;;;;;;;40.40;7.05;;;;;;;;;;5072646;28;20045;-68
2022/05/23 04:23:33;;;;;;;21.90;7.18;;;;;;;;;;5072439;28;20036;-72
2022/05/23 04:26:03;;;;;;;32.88;7.63;;;;;;;;;;5067022;28;20479;-71
2022/05/23 04:28:30;;;;;;;19.73;6.60;;;;;;;;;;5052461;28;20057;-69
2022/05/23 04:30:56;;;;;;;25.45;8.75;;;;;;;;;;5059692;28;20079;-69
2022/05/23 04:36:12;;;;;;;14.93;6.22;;;;;;;;;;5068163;28;20025;-69
2022/05/23 04:38:41;;;;;;;16.48;6.75;;;;;;;;;;5063166;28;20383;-73
2022/05/23 04:41:07;;;;;;;17.55;7.10;;;;;;;;;;5073285;28;20036;-68
2022/05/23 04:43:52;;;;;;;12.13;6.85;;;;;;;;;;5073834;28;20024;-67
2022/05/23 04:46:27;;;;;;;16.50;7.38;;;;;;;;;;5071533;28;20413;-73
2022/05/23 04:52:02;;;;;;;24.63;6.97;;;;;;;;;;5072811;28;20064;-67
2022/05/23 04:54:35;;;;;;;17.75;8.02;;;;;;;;;;5072299;28;20100;-68
2022/05/23 04:57:02;;;;;;;20.77;6.53;;;;;;;;;;5073583;28;20045;-67
2022/05/23 04:59:34;;;;;;;16.33;6.35;;;;;;;;;;5071642;28;20484;-66
2022/05/23 05:02:02;;;;;;;15.05;6.43;;;;;;;;;;5071148;28;20036;-67
2022/05/23 05:04:29;;;;;;;14.07;5.97;;;;;;;;;;5071556;28;20020;-67
2022/05/23 05:06:55;;;;;;;21.70;5.90;;;;;;;;;;5067655;28;20060;-66
2022/05/23 05:09:21;;;;;;;16.25;6.15;;;;;;;;;;5051601;28;20057;-67
2022/05/23 05:11:57;;;;;;;16.48;6.82;;;;;;;;;;5051367;28;20033;-67
2022/05/23 05:14:27;;;;;;;12.88;6.07;;;;;;;;;;5056317;28;20498;-68
2022/05/23 05:16:55;;;;;;;19.90;6.47;;;;;;;;;;5066999;28;20444;-66
2022/05/23 05:19:24;;;;;;;13.93;5.45;;;;;;;;;;5051145;28;20025;-67
2022/05/23 05:21:53;;;;;;;14.07;4.45;;;;;;;;;;5067586;28;20336;-68
2022/05/23 05:24:38;;;;;;;11.15;5.07;;;;;;;;;;5072594;28;20034;-69
2022/05/23 05:27:30;;;;;;;9.70;5.00;;;;;;;;;;5071287;28;20098;-70
2022/05/23 05:29:57;;;;;;;12.73;4.95;;;;;;;;;;5066913;28;20085;-75
2022/05/23 05:32:31;;;;;;;17.92;5.85;;;;;;;;;;5061377;28;20025;-76
2022/05/23 05:35:20;;;;;;;11.85;4.93;;;;;;;;;;5051109;28;20078;-72
2022/05/23 05:37:56;;;;;;;10.75;5.25;;;;;;;;;;5067643;28;20029;-73
2022/05/23 05:40:24;;;;;;;10.77;5.03;;;;;;;;;;5050884;28;20052;-74
2022/05/23 05:42:57;;;;;;;10.82;5.30;;;;;;;;;;5051967;28;20047;-76
2022/05/23 05:45:32;;;;;;;7.65;4.70;;;;;;;;;;5050915;28;20069;-75
2022/05/23 05:48:09;;;;;;;11.90;5.28;;;;;;;;;;5062706;28;20384;-75
2022/05/23 05:50:38;;;;;;;12.07;5.22;;;;;;;;;;5066610;28;20052;-75
2022/05/23 05:53:14;;;;;;;13.68;5.68;;;;;;;;;;5068509;28;20093;-76
2022/05/23 05:55:42;;;;;;;13.00;5.25;;;;;;;;;;5069707;28;20395;-75
2022/05/23 05:58:08;;;;;;;18.58;5.47;;;;;;;;;;5069552;28;20372;-77
2022/05/23 06:00:41;;;;;;;11.48;4.85;;;;;;;;;;5069249;28;20120;-78
2022/05/23 06:03:07;;;;;;;9.50;4.57;;;;;;;;;;5069565;28;20039;-76
2022/05/23 06:14:02;;;;;;;9.93;4.53;;;;;;;;;;5067387;28;20475;-73
2022/05/23 06:16:37;;;;;;;12.23;4.90;;;;;;;;;;5053102;28;20029;-71
2022/05/23 06:19:07;;;;;;;16.27;4.60;;;;;;;;;;5064620;28;20056;-69
2022/05/23 06:21:42;;;;;;;11.70;4.75;;;;;;;;;;5069412;28;20031;-69
2022/05/23 06:24:08;;;;;;;11.88;4.70;;;;;;;;;;5065493;28;20428;-70
2022/05/23 06:26:44;;;;;;;8.50;3.72;;;;;;;;;;5073329;28;20028;-72
2022/05/23 06:29:28;;;;;;;9.38;4.80;;;;;;;;;;5075634;28;20075;-72
2022/05/23 06:32:01;;;;;;;9.68;4.13;;;;;;;;;;5074057;28;20479;-72
2022/05/23 06:34:29;;;;;;;7.03;4.20;;;;;;;;;;5074395;28;20090;-72
2022/05/23 06:36:55;;;;;;;18.15;4.32;;;;;;;;;;5074264;28;20028;-73
2022/05/23 06:39:22;;;;;;;9.48;4.63;;;;;;;;;;5073920;28;20043;-72
2022/05/23 06:42:10;;;;;;;6.28;3.78;;;;;;;;;;5055708;28;20445;-73
2022/05/23 06:44:55;;;;;;;8.10;4.07;;;;;;;;;;5075432;28;20082;-72
2022/05/23 06:47:40;;;;;;;10.40;4.03;;;;;;;;;;5075143;28;20040;-72
2022/05/23 06:50:26;;;;;;;20.55;5.10;;;;;;;;;;5075037;28;20115;-74
2022/05/23 06:53:15;;;;;;;12.05;4.72;;;;;;;;;;5073507;28;20040;-71
2022/05/23 06:55:56;;;;;;;9.50;3.90;;;;;;;;;;5073579;28;20107;-73
2022/05/23 06:58:22;;;;;;;11.27;4.25;;;;;;;;;;5073574;28;20073;-73
2022/05/23 07:00:49;;;;;;;12.40;4.25;;;;;;;;;;5066482;28;20148;-72
2022/05/23 07:03:19;;;;;;;10.20;5.15;;;;;;;;;;5052202;28;20048;-70
2022/05/23 07:14:26;;;;;;;16.15;5.40;;;;;;;;;;5072164;28;20116;-71
2022/05/23 07:16:54;;;;;;;11.98;4.78;;;;;;;;;;5072325;28;20043;-70
2022/05/23 07:19:40;;;;;;;16.30;5.60;;;;;;;;;;5073008;28;20158;-74
2022/05/23 07:22:10;;;;;;;9.32;5.30;;;;;;;;;;5072332;28;20060;-73
2022/05/23 07:24:41;;;;;;;10.63;5.70;;;;;;;;;;5052451;28;20480;-74
2022/05/23 07:27:12;;;;;;;11.98;5.38;;;;;;;;;;5052193;28;20502;-71
2022/05/23 07:29:39;;;;;;;14.27;5.70;;;;;;;;;;5053151;28;20336;-72
2022/05/23 07:32:12;;;;;;;12.30;5.47;;;;;;;;;;5051917;28;20025;-73
2022/05/23 07:34:39;;;;;;;8.40;5.40;;;;;;;;;;5052763;28;20028;-72
2022/05/23 07:37:05;;;;;;;8.00;5.00;;;;;;;;;;5051876;28;20021;-71
2022/05/23 07:39:31;;;;;;;11.05;5.63;;;;;;;;;;5051560;28;20044;-71
2022/05/23 07:42:10;;;;;;;9.23;5.30;;;;;;;;;;5051511;28;20079;-73
2022/05/23 07:44:37;;;;;;;10.95;5.82;;;;;;;;;;5051705;28;20128;-73
2022/05/23 07:47:08;;;;;;;19.73;6.05;;;;;;;;;;5051525;28;20021;-71
2022/05/23 07:49:40;;;;;;;11.57;5.63;;;;;;;;;;5060285;28;20037;-70
2022/05/23 07:52:14;;;;;;;9.35;4.80;;;;;;;;;;5056984;28;20483;-71
2022/05/23 08:00:32;;;;;;;14.57;5.82;;;;;;;;;;5051235;28;20037;-74
2022/05/23 08:03:17;;;;;;;16.35;5.65;;;;;;;;;;5051292;28;20442;-72
2022/05/23 08:05:48;;;;;;;11.65;5.80;;;;;;;;;;5051327;28;20116;-71
2022/05/23 08:08:16;;;;;;;11.02;5.10;;;;;;;;;;5050944;28;20032;-74
2022/05/23 08:10:43;;;;;;;13.70;4.95;;;;;;;;;;5054832;28;20060;-70
2022/05/23 08:13:09;;;;;;;13.95;4.45;;;;;;;;;;5051106;28;20044;-69
2022/05/23 08:15:39;;;;;;;13.07;4.20;;;;;;;;;;5050766;28;20120;-73
2022/05/23 08:18:10;;;;;;;10.70;4.10;;;;;;;;;;5051051;28;20041;-71
2022/05/23 08:20:42;;;;;;;;;;;;;;;;;;5051651;28;20029;-71
2022/05/23 08:23:08;;;;;;;10.50;3.95;;;;;;;;;;5051098;28;19940;-71
2022/05/23 08:25:42;;;;;;;7.78;3.95;;;;;;;;;;5050464;28;20020;-71
2022/05/23 08:28:09;;;;;;;6.35;3.40;;;;;;;;;;5050324;28;20495;-72
2022/05/23 08:30:35;;;;;;;9.88;3.47;;;;;;;;;;5060984;28;20102;-72
2022/05/23 08:33:26;;;;;;;9.05;3.53;;;;;;;;;;5070796;28;20035;-72
2022/05/23 08:36:02;;;;;;;11.70;4.47;;;;;;;;;;5070653;28;20040;-71
2022/05/23 08:38:29;;;;;;;7.25;4.45;;;;;;;;;;5070475;28;20029;-73
2022/05/23 08:41:14;;;;;;;6.80;5.05;;;;;;;;;;5070467;28;20032;-71
2022/05/23 08:44:11;;;;;;;13.52;4.95;;;;;;;;;;5070484;28;20040;-71
2022/05/23 08:47:14;;;;;;;10.70;4.50;;;;;;;;;;5065218;28;20407;-70
2022/05/23 08:49:45;;;;;;;10.68;5.25;;;;;;;;;;5071427;28;20028;-70
2022/05/23 08:52:29;;;;;;;6.63;4.90;;;;;;;;;;5070424;28;20423;-71
2022/05/23 08:55:11;;;;;;;8.05;4.57;;;;;;;;;;5070592;28;20035;-72
2022/05/23 08:58:16;;;;;;;6.45;4.80;;;;;;;;;;5034207;28;20053;-70
2022/05/23 09:00:50;;;;;;;10.38;4.63;;;;;;;;;;5067327;28;20033;-71
2022/05/23 09:03:55;;;;;;;7.50;4.90;;;;;;;;;;5068781;28;20132;-72
2022/05/23 09:06:34;;;;;;;11.98;4.88;;;;;;;;;;5030806;28;20508;-69
2022/05/23 09:09:09;;;;;;;7.75;4.72;;;;;;;;;;5063046;28;20135;-72
2022/05/23 09:11:42;;;;;;;8.55;4.07;;;;;;;;;;5070307;28;20029;-70
2022/05/23 09:14:11;;;;;;;10.15;3.80;;;;;;;;;;5069206;28;20025;-73
2022/05/23 09:16:41;;;;;;;5.90;3.90;;;;;;;;;;5069605;28;20157;-72
2022/05/23 09:19:15;;;;;;;8.38;4.10;;;;;;;;;;5070610;28;20028;-75
2022/05/23 09:24:38;;;;;;;8.68;4.05;;;;;;;;;;5052424;28;20041;-78
2022/05/23 09:27:23;;;;;;;8.93;4.10;;;;;;;;;;5057927;28;20040;-76
2022/05/23 09:29:54;;;;;;;7.80;4.07;;;;;;;;;;5067907;28;20028;-74
2022/05/23 09:32:35;;;;;;;6.60;3.45;;;;;;;;;;5072520;28;20078;-75
2022/05/23 09:35:12;;;;;;;9.13;3.97;;;;;;;;;;5066137;28;20037;-71
2022/05/23 09:37:42;;;;;;;8.93;3.20;;;;;;;;;;5060216;28;20379;-74
2022/05/23 09:40:22;;;;;;;10.48;3.78;;;;;;;;;;5064854;28;20043;-70
2022/05/23 09:48:20;;;;;;;5.95;3.53;;;;;;;;;;5072047;28;20143;-72
2022/05/23 09:50:55;;;;;;;7.20;3.47;;;;;;;;;;5072185;28;20028;-72
2022/05/23 09:53:26;;;;;;;7.05;3.58;;;;;;;;;;5072104;28;20090;-73
2022/05/23 09:55:53;;;;;;;8.98;5.47;;;;;;;;;;5070187;28;20040;-73
2022/05/23 09:58:27;;;;;;;5.13;3.47;;;;;;;;;;5070856;28;20503;-72
2022/05/23 10:01:04;;;;;;;7.07;3.22;;;;;;;;;;5069909;28;20028;-71
2022/05/23 10:03:32;;;;;;;4.80;3.10;;;;;;;;;;5059991;28;20316;-70
2022/05/23 10:06:16;;;;;;;10.05;3.10;;;;;;;;;;5069440;28;20065;-71
2022/05/23 10:08:50;;;;;;;6.60;3.33;;;;;;;;;;5071121;28;20028;-70
2022/05/23 10:11:39;;;;;;;6.03;3.53;;;;;;;;;;5061257;28;20345;-70
2022/05/23 10:14:14;;;;;;;7.05;3.53;;;;;;;;;;5062682;28;20032;-70
2022/05/23 10:16:48;;;;;;;7.32;3.60;;;;;;;;;;5071457;28;20040;-70
2022/05/23 10:19:31;;;;;;;8.52;3.25;;;;;;;;;;5070885;28;20039;-71
2022/05/23 10:22:13;;;;;;;12.82;4.13;;;;;;;;;;5071000;28;20067;-72
2022/05/23 10:24:51;;;;;;;5.20;3.13;;;;;;;;;;5069591;28;20032;-71
2022/05/23 10:27:37;;;;;;;5.68;3.45;;;;;;;;;;5064492;28;20029;-73
2022/05/23 10:30:06;;;;;;;5.72;3.30;;;;;;;;;;5051517;28;20500;-74
2022/05/23 10:32:52;;;;;;;4.57;2.78;;;;;;;;;;5051454;28;20420;-71
2022/05/23 10:35:40;;;;;;;6.55;2.70;;;;;;;;;;5051485;28;20043;-72
2022/05/23 10:44:07;;;;;;;6.57;3.00;;;;;;;;;;5055941;28;20040;-72
2022/05/23 10:46:36;;;;;;;4.57;2.35;;;;;;;;;;5070510;28;20032;-70
2022/05/23 10:49:43;;;;;;;5.50;2.60;;;;;;;;;;5071553;28;20396;-72
2022/05/23 10:52:37;;;;;;;2.97;1.90;;;;;;;;;;5069405;28;20078;-72
2022/05/23 10:55:21;;;;;;;;;;;;;;;;;;5074930;28;20032;-73
2022/05/23 10:58:07;;;;;;;4.15;1.65;;;;;;;;;;5072686;28;19959;-73
2022/05/23 11:01:10;;;;;;;6.05;1.95;;;;;;;;;;5074966;28;20040;-73
2022/05/23 11:03:41;;;;;;;6.20;2.05;;;;;;;;;;5074636;28;20247;-73
2022/05/23 11:06:26;;;;;;;3.13;1.77;;;;;;;;;;5074768;28;20036;-74
2022/05/23 11:09:20;;;;;;;3.65;2.25;;;;;;;;;;5073955;28;20471;-73
2022/05/23 11:12:07;;;;;;;5.15;2.35;;;;;;;;;;5073580;28;20044;-72
2022/05/23 11:15:02;;;;;;;3.85;2.20;;;;;;;;;;5074586;28;20029;-74
2022/05/23 11:17:34;;;;;;;5.55;2.70;;;;;;;;;;5070084;28;20079;-73
2022/05/23 11:20:09;;;;;;;3.28;2.47;;;;;;;;;;5075058;28;20029;-71
2022/05/23 11:22:43;;;;;;;5.85;2.50;;;;;;;;;;5074751;28;20032;-74
2022/05/23 11:25:24;;;;;;;3.28;1.90;;;;;;;;;;5074840;28;20036;-73
2022/05/23 11:34:21;;;;;;;3.88;2.00;;;;;;;;;;5074892;28;20137;-70
2022/05/23 11:37:01;;;;;;;6.25;1.98;;;;;;;;;;5074860;28;20383;-72
2022/05/23 11:39:48;;;;;;;7.93;2.60;;;;;;;;;;5074253;28;20033;-74
2022/05/23 11:42:37;;;;;;;5.55;2.10;;;;;;;;;;5073471;28;20071;-69
2022/05/23 11:47:55;;;;;;;3.33;1.73;;;;;;;;;;5073423;28;20041;-72
2022/05/23 11:50:26;;;;;;;3.13;1.67;;;;;;;;;;5073509;28;20127;-72
2022/05/23 11:53:11;;;;;;;3.57;1.50;;;;;;;;;;5074658;28;20381;-74
2022/05/23 11:55:55;;;;;;;4.85;1.60;;;;;;;;;;5072431;28;20040;-72
2022/05/23 11:58:26;;;;;;;5.13;1.80;;;;;;;;;;5054167;28;20364;-75
2022/05/23 12:01:05;;;;;;;8.52;1.83;;;;;;;;;;5071340;28;20438;-74
2022/05/23 12:03:49;;;;;;;3.05;1.60;;;;;;;;;;5074677;28;20025;-76
2022/05/23 12:06:35;;;;;;;3.20;2.00;;;;;;;;;;5074021;28;20046;-74
2022/05/23 12:09:13;;;;;;;5.53;1.92;;;;;;;;;;5074207;28;20033;-76
2022/05/23 12:11:42;;;;;;;4.78;2.50;;;;;;;;;;5072385;28;20032;-72
2022/05/23 12:14:28;;;;;;;4.22;2.30;;;;;;;;;;5073999;28;20116;-73
2022/05/23 12:17:06;;;;;;;2.65;1.33;;;;;;;;;;5072951;28;20441;-73
2022/05/23 12:19:41;;;;;;;4.45;1.40;;;;;;;;;;5074048;28;20033;-72
2022/05/23 12:22:25;;;;;;;4.60;2.05;;;;;;;;;;5073226;28;20151;-73
2022/05/23 12:25:08;;;;;;;2.63;1.42;;;;;;;;;;5074177;28;20514;-74
2022/05/23 12:27:38;;;;;;;4.88;1.70;;;;;;;;;;5072585;28;20586;-72
2022/05/23 12:30:17;;;;;;;3.90;1.52;;;;;;;;;;5072345;28;20055;-75
2022/05/23 12:32:56;;;;;;;6.50;2.15;;;;;;;;;;5073384;28;20494;-75
2022/05/23 12:35:40;;;;;;;5.28;2.17;;;;;;;;;;5073741;28;20024;-76
2022/05/23 12:38:36;;;;;;;3.85;2.00;;;;;;;;;;5073526;28;20039;-70
2022/05/23 12:41:35;;;;;;;4.22;1.52;;;;;;;;;;5073510;28;20028;-72
2022/05/23 12:44:24;;;;;;;6.65;1.98;;;;;;;;;;5073731;28;20028;-72
2022/05/23 12:47:02;;;;;;;3.28;1.42;;;;;;;;;;5072753;28;20079;-74
2022/05/23 12:49:39;;;;;;;4.10;2.47;;;;;;;;;;5073429;28;20051;-74
2022/05/23 12:52:39;;;;;;;5.45;1.70;;;;;;;;;;5073693;28;20035;-72
2022/05/23 12:55:24;;;;;;;3.38;1.95;;;;;;;;;;5073379;28;20032;-72
2022/05/23 12:58:12;;;;;;;3.58;1.73;;;;;;;;;;5073611;28;20425;-72
2022/05/23 13:00:46;;;;;;;3.05;1.58;;;;;;;;;;5073234;28;20070;-74
2022/05/23 13:03:40;;;;;;;5.35;1.90;;;;;;;;;;5053273;28;20033;-75
2022/05/23 13:06:20;;;;;;;3.58;1.80;;;;;;;;;;5053084;28;20052;-74
2022/05/23 13:09:07;;;;;;;2.75;1.63;;;;;;;;;;5053029;28;20032;-71
2022/05/23 13:11:38;;;;;;;3.10;1.52;;;;;;;;;;5053328;28;20427;-75
2022/05/23 13:14:04;;;;;;;5.85;1.45;;;;;;;;;;5051722;28;20060;-70
2022/05/23 13:16:37;;;;;;;3.80;1.45;;;;;;;;;;5052210;28;20025;-71
2022/05/23 13:22:05;;;;;;;5.97;1.90;;;;;;;;;;5069859;28;20186;-72
2022/05/23 13:24:48;;;;;;;6.10;2.47;;;;;;;;;;5071850;28;20024;-70
2022/05/23 13:27:48;;;;;;;5.88;2.83;;;;;;;;;;5073140;28;20044;-73
2022/05/23 13:30:17;;;;;;;5.38;1.77;;;;;;;;;;5071594;28;20123;-73
2022/05/23 13:33:30;;;;;;;5.63;2.33;;;;;;;;;;5072534;28;20035;-73
2022/05/23 13:36:02;;;;;;;3.03;1.70;;;;;;;;;;5067967;28;20036;-73
2022/05/23 13:38:30;;;;;;;4.60;1.70;;;;;;;;;;5072544;28;20107;-71
2022/05/23 13:41:01;;;;;;;3.47;1.80;;;;;;;;;;5072891;28;20020;-72
2022/05/23 13:43:47;;;;;;;3.97;1.90;;;;;;;;;;5072848;28;20039;-70
2022/05/23 13:46:19;;;;;;;3.38;1.73;;;;;;;;;;5072588;28;20035;-70
2022/05/23 13:48:51;;;;;;;3.08;1.80;;;;;;;;;;5072267;28;20192;-71
2022/05/23 13:51:20;;;;;;;8.63;2.30;;;;;;;;;;5072222;28;20124;-73
2022/05/23 13:53:56;;;;;;;2.70;1.55;;;;;;;;;;5072050;28;20497;-71
2022/05/23 13:56:22;;;;;;;3.47;1.60;;;;;;;;;;5072115;28;20068;-69
2022/05/23 13:58:54;;;;;;;1.98;1.50;;;;;;;;;;5070066;28;20379;-72
2022/05/23 14:01:26;;;;;;;2.63;1.70;;;;;;;;;;5072151;28;20493;-71
2022/05/23 14:04:06;;;;;;;9.13;2.92;;;;;;;;;;5072289;28;20049;-73
2022/05/23 14:06:45;;;;;;;6.63;1.83;;;;;;;;;;5071934;28;20377;-72
2022/05/23 14:09:12;;;;;;;4.57;1.92;;;;;;;;;;5071430;28;20409;-73
2022/05/23 14:11:45;;;;;;;5.85;1.80;;;;;;;;;;5052682;28;20022;-72
2022/05/23 14:14:19;;;;;;;4.35;2.35;;;;;;;;;;5051682;28;20581;-69
2022/05/23 14:17:15;;;;;;;4.45;1.95;;;;;;;;;;5051671;28;20488;-69
2022/05/23 14:20:11;;;;;;;4.30;1.90;;;;;;;;;;5051707;28;20049;-73
2022/05/23 14:22:37;;;;;;;8.32;2.58;;;;;;;;;;5051187;28;20102;-72
2022/05/23 14:25:23;;;;;;;5.03;2.05;;;;;;;;;;5051607;28;20476;-71
2022/05/23 14:27:54;;;;;;;6.07;1.73;;;;;;;;;;5051857;28;20037;-73
2022/05/23 14:30:27;;;;;;;3.28;2.03;;;;;;;;;;5055496;28;20029;-74
2022/05/23 14:33:02;;;;;;;6.25;2.55;;;;;;;;;;5055470;28;20037;-74
2022/05/23 14:35:37;;;;;;;11.50;2.17;;;;;;;;;;5055645;28;20048;-76
2022/05/23 14:38:18;;;;;;;8.95;2.83;;;;;;;;;;5055836;28;20036;-72
2022/05/23 14:40:44;;;;;;;13.02;3.10;;;;;;;;;;5055958;28;20384;-75
2022/05/23 14:43:12;;;;;;;7.88;2.78;;;;;;;;;;5056024;28;20021;-77
2022/05/23 14:45:51;;;;;;;21.58;3.20;;;;;;;;;;5055884;28;20047;-72
2022/05/23 14:48:30;;;;;;;17.13;3.97;;;;;;;;;;5071029;28;20024;-73
2022/05/23 14:51:13;;;;;;;17.67;4.88;;;;;;;;;;5074806;28;20112;-73
2022/05/23 14:56:55;;;;;;;11.90;4.60;;;;;;;;;;5066209;28;20036;-73
2022/05/23 15:02:46;;;;;;;12.32;4.03;;;;;;;;;;5055066;28;20044;-76
2022/05/23 15:05:14;;;;;;;12.07;3.95;;;;;;;;;;5054578;28;20079;-73
2022/05/23 15:07:40;;;;;;;8.10;4.38;;;;;;;;;;5061698;28;20036;-73
2022/05/23 15:10:07;;;;;;;5.30;3.63;;;;;;;;;;5073236;28;20032;-71
2022/05/23 15:12:35;;;;;;;11.35;3.28;;;;;;;;;;5073430;28;20074;-72
2022/05/23 15:15:01;;;;;;;7.90;4.32;;;;;;;;;;5072087;28;20480;-75
2022/05/23 15:17:27;;;;;;;6.43;3.20;;;;;;;;;;5055248;28;20024;-73
2022/05/23 15:19:53;;;;;;;5.68;3.30;;;;;;;;;;5055222;28;20448;-72
2022/05/23 15:22:22;;;;;;;4.72;3.00;;;;;;;;;;5053486;28;20502;-72
2022/05/23 15:24:48;;;;;;;7.93;2.95;;;;;;;;;;5054980;28;20049;-78
2022/05/23 15:27:26;;;;;;;4.93;3.05;;;;;;;;;;5069960;28;20025;-72
2022/05/23 15:29:54;;;;;;;4.32;2.63;;;;;;;;;;5054697;28;20029;-75
2022/05/23 15:32:20;;;;;;;5.35;2.83;;;;;;;;;;5054748;28;20748;-70
2022/05/23 15:34:47;;;;;;;4.93;2.63;;;;;;;;;;5055070;28;20069;-73
2022/05/23 15:37:15;;;;;;;6.50;2.58;;;;;;;;;;5054839;28;20075;-70
2022/05/23 15:39:41;;;;;;;7.25;2.92;;;;;;;;;;5053917;28;20068;-73
2022/05/23 15:42:10;;;;;;;4.88;3.17;;;;;;;;;;5054582;28;20056;-73
2022/05/23 15:44:38;;;;;;;7.63;3.08;;;;;;;;;;5054183;28;20049;-70
2022/05/23 15:47:09;;;;;;;9.70;3.00;;;;;;;;;;5054107;28;20099;-71
2022/05/23 15:49:34;;;;;;;4.97;2.55;;;;;;;;;;5054352;28;20112;-72
2022/05/23 15:52:01;;;;;;;4.25;2.60;;;;;;;;;;5054520;28;20040;-71
2022/05/23 15:54:28;;;;;;;5.38;2.50;;;;;;;;;;5057796;28;20495;-70
2022/05/23 15:56:55;;;;;;;7.18;2.92;;;;;;;;;;5057894;28;20045;-69
2022/05/23 15:59:22;;;;;;;7.00;2.70;;;;;;;;;;5060201;28;20071;-69
2022/05/23 16:01:48;;;;;;;5.50;2.50;;;;;;;;;;5055081;28;20075;-71
2022/05/23 16:04:16;;;;;;;11.57;3.20;;;;;;;;;;5059140;28;20032;-69
2022/05/23 16:06:45;;;;;;;4.60;2.78;;;;;;;;;;5052869;28;20036;-69
2022/05/23 16:09:11;;;;;;;6.22;2.83;;;;;;;;;;5054324;28;20472;-72
2022/05/23 16:11:47;;;;;;;5.88;3.03;;;;;;;;;;5054238;28;20099;-73
2022/05/23 16:14:18;;;;;;;8.38;3.08;;;;;;;;;;5059179;28;20032;-72
2022/05/23 16:16:48;;;;;;;4.88;2.50;;;;;;;;;;5072731;28;20039;-71
2022/05/23 16:19:18;;;;;;;11.02;3.60;;;;;;;;;;5072620;28;20032;-70
2022/05/23 16:21:43;;;;;;;5.63;2.50;;;;;;;;;;5072550;28;20028;-71
2022/05/23 16:24:10;;;;;;;5.53;2.50;;;;;;;;;;5072638;28;20036;-70
2022/05/23 16:26:36;;;;;;;6.65;2.83;;;;;;;;;;5073167;28;20427;-74
2022/05/23 16:29:03;;;;;;;5.20;2.78;;;;;;;;;;5088246;28;20035;-70